createdAt,value
2023-03-22T00:00:21.642Z,9.67
2023-03-22T00:03:24.591Z,9.61
2023-03-22T00:06:28.573Z,9.68
2023-03-22T00:09:31.767Z,9.59
2023-03-22T00:12:34.343Z,9.72
2023-03-22T00:15:37.674Z,9.80
2023-03-22T00:18:41.704Z,9.71
2023-03-22T00:21:46.279Z,9.75
2023-03-22T00:24:48.967Z,9.77
2023-03-22T00:27:51.707Z,9.78
2023-03-22T00:30:56.470Z,9.49
2023-03-22T00:33:59.224Z,9.50
2023-03-22T00:37:03.366Z,9.54
2023-03-22T00:40:08.812Z,9.56
2023-03-22T00:43:11.393Z,9.39
2023-03-22T00:46:15.651Z,9.60
2023-03-22T00:49:18.838Z,9.69
2023-03-22T00:52:23.235Z,9.65
2023-03-22T00:55:25.836Z,9.69
2023-03-22T00:58:28.457Z,9.49
2023-03-22T01:01:31.661Z,9.50
2023-03-22T01:04:35.571Z,9.42
2023-03-22T01:07:41.610Z,9.34
2023-03-22T01:10:46.001Z,9.34
2023-03-22T01:13:48.940Z,9.56
2023-03-22T01:16:54.775Z,9.64
2023-03-22T01:19:57.381Z,9.68
2023-03-22T01:23:01.427Z,9.63
2023-03-22T01:26:04.432Z,9.60
2023-03-22T01:29:07.187Z,9.38
2023-03-22T01:32:09.796Z,9.65
2023-03-22T01:35:12.576Z,9.50
2023-03-22T01:38:16.546Z,9.63
2023-03-22T01:41:19.138Z,9.58
2023-03-22T01:44:23.577Z,9.72
2023-03-22T01:47:26.265Z,9.76
2023-03-22T01:50:30.092Z,9.54
2023-03-22T01:53:37.685Z,9.58
2023-03-22T01:56:41.978Z,9.69
2023-03-22T01:59:45.900Z,9.91
2023-03-22T02:02:51.392Z,9.88
2023-03-22T02:05:55.631Z,9.82
2023-03-22T02:08:59.882Z,9.81
2023-03-22T02:12:14.283Z,9.88
2023-03-22T02:15:23.524Z,9.60
2023-03-22T02:18:40.104Z,9.89
2023-03-22T02:22:14.235Z,9.76
2023-03-22T02:25:42.619Z,9.87
2023-03-22T02:28:50.928Z,9.72
2023-03-22T02:32:33.878Z,9.88
2023-03-22T02:36:07.635Z,9.72
2023-03-22T02:39:32.397Z,9.99
2023-03-22T02:42:45.278Z,10.03
2023-03-22T02:45:54.854Z,10.01
2023-03-22T02:49:05.566Z,10.16
2023-03-22T02:52:17.343Z,10.10
2023-03-22T02:55:27.448Z,9.91
2023-03-22T02:58:34.863Z,9.84
2023-03-22T03:01:41.610Z,9.87
2023-03-22T03:04:47.395Z,9.74
2023-03-22T03:07:55.641Z,9.80
2023-03-22T03:10:59.686Z,9.94
2023-03-22T03:14:02.370Z,9.93
2023-03-22T03:17:18.747Z,10.00
2023-03-22T03:20:30.245Z,9.87
2023-03-22T03:23:46.613Z,9.86
2023-03-22T03:26:57.308Z,9.64
2023-03-22T03:30:03.422Z,9.78
2023-03-22T03:33:10.475Z,9.79
2023-03-22T03:36:17.885Z,9.81
2023-03-22T03:39:22.076Z,9.83
2023-03-22T03:42:29.394Z,9.97
2023-03-22T03:45:32.691Z,9.89
2023-03-22T03:48:38.038Z,9.85
2023-03-22T03:51:49.437Z,9.65
2023-03-22T03:54:52.180Z,9.67
2023-03-22T03:57:56.131Z,9.74
2023-03-22T04:00:58.768Z,9.71
2023-03-22T04:04:01.410Z,9.81
2023-03-22T04:07:06.531Z,9.78
2023-03-22T04:10:09.941Z,9.76
2023-03-22T04:13:13.849Z,9.67
2023-03-22T04:16:16.465Z,9.70
2023-03-22T04:19:19.735Z,9.69
2023-03-22T04:22:22.313Z,9.65
2023-03-22T04:25:29.845Z,9.80
2023-03-22T04:28:34.254Z,9.86
2023-03-22T04:31:37.558Z,9.98
2023-03-22T04:34:40.297Z,9.95
2023-03-22T04:37:43.749Z,9.75
2023-03-22T04:40:46.699Z,9.79
2023-03-22T04:43:50.966Z,9.81
2023-03-22T04:46:53.597Z,9.90
2023-03-22T04:49:56.306Z,10.00
2023-03-22T04:52:59.019Z,9.89
2023-03-22T04:56:02.672Z,10.04
2023-03-22T04:59:06.619Z,10.05
2023-03-22T05:02:09.196Z,10.03
2023-03-22T05:05:11.787Z,9.99
2023-03-22T05:08:14.353Z,10.00
2023-03-22T05:11:19.373Z,9.83
2023-03-22T05:14:23.417Z,10.08
2023-03-22T05:17:26.011Z,9.98
2023-03-22T05:20:28.579Z,9.80
2023-03-22T05:23:31.177Z,9.86
2023-03-22T05:26:33.853Z,9.91
2023-03-22T05:29:37.924Z,9.86
2023-03-22T05:32:43.772Z,10.02
2023-03-22T05:35:46.410Z,10.05
2023-03-22T05:38:49.730Z,10.05
2023-03-22T05:41:52.322Z,9.92
2023-03-22T05:44:56.272Z,9.98
2023-03-22T05:47:59.242Z,9.89
2023-03-22T05:51:03.318Z,10.08
2023-03-22T05:54:07.536Z,10.06
2023-03-22T05:57:10.317Z,10.10
2023-03-22T06:00:16.873Z,10.31
2023-03-22T06:03:19.507Z,10.39
2023-03-22T06:06:22.164Z,10.19
2023-03-22T06:09:24.758Z,10.06
2023-03-22T06:12:30.031Z,10.09
2023-03-22T06:15:34.173Z,10.15
2023-03-22T06:18:36.803Z,10.03
2023-03-22T06:21:39.389Z,10.18
2023-03-22T06:24:42.406Z,10.24
2023-03-22T06:27:44.985Z,10.34
2023-03-22T06:30:48.960Z,10.35
2023-03-22T06:33:52.613Z,10.46
2023-03-22T06:36:56.369Z,10.48
2023-03-22T06:39:58.977Z,10.70
2023-03-22T06:43:04.604Z,10.73
2023-03-22T06:46:10.396Z,10.72
2023-03-22T06:49:12.976Z,10.64
2023-03-22T06:52:15.610Z,10.81
2023-03-22T06:55:18.281Z,10.99
2023-03-22T06:58:20.911Z,11.06
2023-03-22T07:01:25.560Z,10.55
2023-03-22T07:04:29.125Z,10.82
2023-03-22T07:07:31.725Z,10.83
2023-03-22T07:10:34.396Z,10.77
2023-03-22T07:13:36.990Z,10.74
2023-03-22T07:16:40.944Z,10.75
2023-03-22T07:19:44.912Z,10.98
2023-03-22T07:22:47.510Z,11.08
2023-03-22T07:25:50.274Z,11.06
2023-03-22T07:28:53.053Z,10.83
2023-03-22T07:31:57.091Z,10.77
2023-03-22T07:34:59.698Z,10.61
2023-03-22T07:38:02.307Z,10.63
2023-03-22T07:41:05.910Z,10.89
2023-03-22T07:44:17.621Z,10.98
2023-03-22T07:47:37.762Z,11.10
2023-03-22T07:50:42.890Z,10.99
2023-03-22T07:53:45.610Z,10.77
2023-03-22T07:56:48.915Z,10.95
2023-03-22T07:59:51.533Z,11.20
2023-03-22T08:02:55.645Z,11.13
2023-03-22T08:06:03.734Z,11.24
2023-03-22T08:09:08.290Z,11.19
2023-03-22T08:12:10.994Z,11.30
2023-03-22T08:15:13.577Z,11.36
2023-03-22T08:18:17.498Z,11.41
2023-03-22T08:21:20.232Z,11.48
2023-03-22T08:24:22.832Z,11.54
2023-03-22T08:27:25.541Z,11.52
2023-03-22T08:30:28.120Z,11.71
2023-03-22T08:33:32.056Z,11.69
2023-03-22T08:36:34.796Z,11.88
2023-03-22T08:39:37.766Z,11.91
2023-03-22T08:42:40.327Z,12.01
2023-03-22T08:45:43.287Z,12.00
2023-03-22T08:48:50.603Z,12.03
2023-03-22T08:51:53.236Z,12.05
2023-03-22T08:54:56.244Z,12.26
2023-03-22T08:57:59.742Z,12.39
2023-03-22T09:01:02.424Z,12.41
2023-03-22T09:04:07.858Z,12.47
2023-03-22T09:07:11.788Z,12.52
2023-03-22T09:10:15.094Z,12.89
2023-03-22T09:13:17.786Z,13.43
2023-03-22T09:16:20.690Z,13.38
2023-03-22T09:19:24.726Z,13.29
2023-03-22T09:22:27.665Z,13.28
2023-03-22T09:25:30.665Z,13.40
2023-03-22T09:28:33.714Z,13.70
2023-03-22T09:31:36.313Z,13.48
2023-03-22T09:34:40.593Z,13.49
2023-03-22T09:37:45.560Z,13.95
2023-03-22T09:41:00.314Z,13.79
2023-03-22T09:44:06.445Z,14.07
2023-03-22T09:47:16.939Z,14.15
2023-03-22T09:50:23.800Z,14.01
2023-03-22T09:53:29.514Z,13.94
2023-03-22T09:56:33.112Z,13.81
2023-03-22T09:59:41.707Z,13.70
2023-03-22T10:02:58.886Z,13.76
2023-03-22T10:06:06.079Z,13.69
2023-03-22T10:09:15.495Z,13.41
2023-03-22T10:12:26.252Z,13.39
2023-03-22T10:15:33.198Z,13.46
2023-03-22T10:18:38.950Z,13.46
2023-03-22T10:21:43.083Z,13.57
2023-03-22T10:24:48.990Z,13.48
2023-03-22T10:27:52.867Z,13.46
2023-03-22T10:30:57.125Z,13.38
2023-03-22T10:34:03.528Z,13.40
2023-03-22T10:37:11.492Z,13.50
2023-03-22T10:40:19.424Z,13.48
2023-03-22T10:43:26.436Z,13.61
2023-03-22T10:46:35.784Z,13.55
2023-03-22T10:49:43.334Z,13.52
2023-03-22T10:52:52.516Z,13.61
2023-03-22T10:55:55.272Z,13.55
2023-03-22T10:58:58.034Z,13.50
2023-03-22T11:02:01.885Z,13.47
2023-03-22T11:05:07.062Z,13.60
2023-03-22T11:08:15.305Z,13.63
2023-03-22T11:11:23.216Z,13.57
2023-03-22T11:14:31.155Z,13.72
2023-03-22T11:17:35.962Z,13.70
2023-03-22T11:20:41.572Z,13.75
2023-03-22T11:23:53.924Z,13.94
2023-03-22T11:27:04.833Z,13.86
2023-03-22T11:30:20.991Z,13.96
2023-03-22T11:33:25.805Z,13.89
2023-03-22T11:36:30.015Z,13.95
2023-03-22T11:39:34.015Z,13.99
2023-03-22T11:42:36.895Z,14.13
2023-03-22T11:45:43.801Z,14.04
2023-03-22T11:48:48.263Z,14.18
2023-03-22T11:51:50.986Z,14.35
2023-03-22T11:54:56.829Z,14.30
2023-03-22T11:57:59.514Z,14.23
2023-03-22T12:01:04.262Z,14.05
2023-03-22T12:04:11.405Z,13.98
2023-03-22T12:07:17.247Z,13.93
2023-03-22T12:10:26.355Z,14.08
2023-03-22T12:13:33.998Z,14.01
2023-03-22T12:16:45.721Z,14.22
2023-03-22T12:19:58.929Z,13.96
2023-03-22T12:23:03.218Z,13.86
2023-03-22T12:26:13.479Z,13.83
2023-03-22T12:29:19.799Z,13.78
2023-03-22T12:32:27.893Z,13.80
2023-03-22T12:35:32.818Z,13.83
2023-03-22T12:38:42.160Z,13.93
2023-03-22T12:41:49.592Z,13.88
2023-03-22T12:45:05.030Z,13.66
2023-03-22T12:48:15.297Z,13.75
2023-03-22T12:51:18.039Z,13.85
2023-03-22T12:54:25.185Z,13.83
2023-03-22T12:57:29.417Z,13.77
2023-03-22T13:00:37.834Z,13.68
2023-03-22T13:03:46.789Z,13.64
2023-03-22T13:06:58.226Z,13.70
2023-03-22T13:10:02.437Z,13.76
2023-03-22T13:13:18.151Z,13.89
2023-03-22T13:16:24.585Z,13.83
2023-03-22T13:19:38.451Z,13.71
2023-03-22T13:23:05.564Z,13.78
2023-03-22T13:26:16.443Z,13.64
2023-03-22T13:29:24.280Z,13.40
2023-03-22T13:32:33.138Z,13.15
2023-03-22T13:35:44.426Z,13.16
2023-03-22T13:38:56.580Z,13.12
2023-03-22T13:42:06.830Z,12.79
2023-03-22T13:45:31.437Z,12.64
2023-03-22T13:48:43.840Z,12.64
2023-03-22T13:51:46.802Z,12.54
2023-03-22T13:54:52.337Z,12.59
2023-03-22T13:57:59.811Z,12.60
2023-03-22T14:01:06.009Z,12.65
2023-03-22T14:04:12.935Z,12.71
2023-03-22T14:07:24.051Z,12.77
2023-03-22T14:10:32.317Z,12.66
2023-03-22T14:13:40.564Z,12.67
2023-03-22T14:16:47.995Z,12.63
2023-03-22T14:19:51.047Z,12.50
